sensor_id;sensor_type;location;lat;lon;timestamp;P1;durP1;ratioP1;P2;durP2;ratioP2
25213;SDS011;13160;51.834;4.706;2024-03-08T06:13:19;50.28;;;23.80;;
25213;SDS011;13160;51.834;4.706;2024-03-08T06:15:56;44.45;;;24.55;;
25213;SDS011;13160;51.834;4.706;2024-03-08T06:18:28;46.80;;;23.98;;
25213;SDS011;13160;51.834;4.706;2024-03-08T06:21:30;43.95;;;24.10;;
25213;SDS011;13160;51.834;4.706;2024-03-08T06:25:01;46.60;;;25.05;;
25213;SDS011;13160;51.834;4.706;2024-03-08T06:28:32;48.92;;;22.92;;
25213;SDS011;13160;51.834;4.706;2024-03-08T06:35:04;42.78;;;23.58;;
25213;SDS011;13160;51.834;4.706;2024-03-08T06:38:00;48.08;;;22.98;;
25213;SDS011;13160;51.834;4.706;2024-03-08T06:41:30;46.35;;;23.83;;
25213;SDS011;13160;51.834;4.706;2024-03-08T07:09:22;41.80;;;22.90;;
25213;SDS011;13160;51.834;4.706;2024-03-08T07:12:59;49.00;;;24.58;;
25213;SDS011;13160;51.834;4.706;2024-03-08T07:16:09;46.45;;;24.40;;
25213;SDS011;13160;51.834;4.706;2024-03-08T07:18:42;50.35;;;24.48;;
25213;SDS011;13160;51.834;4.706;2024-03-08T07:21:21;48.25;;;24.00;;
25213;SDS011;13160;51.834;4.706;2024-03-08T07:28:18;46.50;;;24.17;;
25213;SDS011;13160;51.834;4.706;2024-03-08T08:26:22;48.30;;;23.42;;
25213;SDS011;13160;51.834;4.706;2024-03-08T08:28:54;45.55;;;24.70;;
25213;SDS011;13160;51.834;4.706;2024-03-08T08:31:22;43.97;;;24.98;;
25213;SDS011;13160;51.834;4.706;2024-03-08T08:33:53;42.90;;;24.08;;
25213;SDS011;13160;51.834;4.706;2024-03-08T08:36:29;43.00;;;24.27;;
25213;SDS011;13160;51.834;4.706;2024-03-08T08:38:58;46.33;;;24.42;;
25213;SDS011;13160;51.834;4.706;2024-03-08T08:41:31;47.67;;;24.77;;
25213;SDS011;13160;51.834;4.706;2024-03-08T08:44:02;43.40;;;24.48;;
25213;SDS011;13160;51.834;4.706;2024-03-08T08:46:35;44.92;;;24.13;;
25213;SDS011;13160;51.834;4.706;2024-03-08T08:52:04;41.33;;;22.40;;
25213;SDS011;13160;51.834;4.706;2024-03-08T08:54:42;40.10;;;24.33;;
25213;SDS011;13160;51.834;4.706;2024-03-08T08:57:16;43.60;;;24.55;;
25213;SDS011;13160;51.834;4.706;2024-03-08T08:59:56;45.92;;;24.45;;
25213;SDS011;13160;51.834;4.706;2024-03-08T09:02:58;42.25;;;23.02;;
25213;SDS011;13160;51.834;4.706;2024-03-08T09:05:33;43.63;;;23.92;;
25213;SDS011;13160;51.834;4.706;2024-03-08T09:08:06;43.95;;;23.95;;
25213;SDS011;13160;51.834;4.706;2024-03-08T09:10:55;40.13;;;23.35;;
25213;SDS011;13160;51.834;4.706;2024-03-08T09:13:29;42.65;;;24.38;;
25213;SDS011;13160;51.834;4.706;2024-03-08T09:16:01;45.65;;;24.05;;
25213;SDS011;13160;51.834;4.706;2024-03-08T09:18:31;43.15;;;23.98;;
25213;SDS011;13160;51.834;4.706;2024-03-08T09:21:03;41.92;;;24.42;;
25213;SDS011;13160;51.834;4.706;2024-03-08T09:23:36;42.20;;;24.67;;
25213;SDS011;13160;51.834;4.706;2024-03-08T09:26:06;38.55;;;23.02;;
25213;SDS011;13160;51.834;4.706;2024-03-08T09:28:49;36.55;;;23.50;;
25213;SDS011;13160;51.834;4.706;2024-03-08T09:31:19;39.60;;;24.42;;
25213;SDS011;13160;51.834;4.706;2024-03-08T09:33:50;43.40;;;24.75;;
25213;SDS011;13160;51.834;4.706;2024-03-08T09:36:19;36.65;;;22.30;;
25213;SDS011;13160;51.834;4.706;2024-03-08T09:39:14;41.83;;;23.45;;
25213;SDS011;13160;51.834;4.706;2024-03-08T09:41:45;39.83;;;22.73;;
25213;SDS011;13160;51.834;4.706;2024-03-08T09:44:15;39.67;;;23.83;;
25213;SDS011;13160;51.834;4.706;2024-03-08T09:46:46;37.53;;;22.90;;
25213;SDS011;13160;51.834;4.706;2024-03-08T09:49:20;39.67;;;23.02;;
25213;SDS011;13160;51.834;4.706;2024-03-08T09:51:52;39.03;;;23.15;;
25213;SDS011;13160;51.834;4.706;2024-03-08T09:54:23;35.80;;;21.55;;
25213;SDS011;13160;51.834;4.706;2024-03-08T09:56:53;42.42;;;23.30;;
25213;SDS011;13160;51.834;4.706;2024-03-08T09:59:24;38.47;;;22.70;;
25213;SDS011;13160;51.834;4.706;2024-03-08T10:02:15;39.55;;;23.20;;
25213;SDS011;13160;51.834;4.706;2024-03-08T10:04:50;36.88;;;23.08;;
25213;SDS011;13160;51.834;4.706;2024-03-08T10:07:20;36.90;;;22.30;;
25213;SDS011;13160;51.834;4.706;2024-03-08T10:09:51;36.42;;;22.50;;
25213;SDS011;13160;51.834;4.706;2024-03-08T10:12:21;36.92;;;22.83;;
25213;SDS011;13160;51.834;4.706;2024-03-08T10:14:54;37.13;;;22.50;;
25213;SDS011;13160;51.834;4.706;2024-03-08T10:17:24;33.45;;;21.30;;
25213;SDS011;13160;51.834;4.706;2024-03-08T10:19:59;36.67;;;21.98;;
25213;SDS011;13160;51.834;4.706;2024-03-08T10:22:42;37.13;;;22.58;;
25213;SDS011;13160;51.834;4.706;2024-03-08T10:25:34;35.80;;;21.88;;
25213;SDS011;13160;51.834;4.706;2024-03-08T10:28:09;35.45;;;21.77;;
25213;SDS011;13160;51.834;4.706;2024-03-08T10:30:47;36.67;;;22.30;;
25213;SDS011;13160;51.834;4.706;2024-03-08T10:33:19;34.22;;;21.67;;
25213;SDS011;13160;51.834;4.706;2024-03-08T10:35:48;34.97;;;22.27;;
25213;SDS011;13160;51.834;4.706;2024-03-08T10:38:17;37.35;;;22.10;;
25213;SDS011;13160;51.834;4.706;2024-03-08T10:40:52;38.28;;;22.83;;
25213;SDS011;13160;51.834;4.706;2024-03-08T10:43:23;38.40;;;23.13;;
25213;SDS011;13160;51.834;4.706;2024-03-08T10:45:59;35.75;;;22.40;;
25213;SDS011;13160;51.834;4.706;2024-03-08T10:48:43;36.50;;;22.40;;
25213;SDS011;13160;51.834;4.706;2024-03-08T10:51:13;33.67;;;21.23;;
25213;SDS011;13160;51.834;4.706;2024-03-08T10:53:46;35.28;;;22.13;;
25213;SDS011;13160;51.834;4.706;2024-03-08T10:56:18;32.88;;;20.63;;
25213;SDS011;13160;51.834;4.706;2024-03-08T10:58:47;35.75;;;22.70;;
25213;SDS011;13160;51.834;4.706;2024-03-08T11:01:18;35.53;;;21.60;;
25213;SDS011;13160;51.834;4.706;2024-03-08T11:03:48;29.75;;;21.33;;
25213;SDS011;13160;51.834;4.706;2024-03-08T11:06:22;33.00;;;22.15;;
25213;SDS011;13160;51.834;4.706;2024-03-08T11:08:58;34.03;;;21.33;;
25213;SDS011;13160;51.834;4.706;2024-03-08T11:11:28;31.95;;;21.67;;
25213;SDS011;13160;51.834;4.706;2024-03-08T11:14:01;33.58;;;20.77;;
25213;SDS011;13160;51.834;4.706;2024-03-08T11:16:39;33.58;;;20.95;;
25213;SDS011;13160;51.834;4.706;2024-03-08T11:19:25;34.33;;;21.10;;
25213;SDS011;13160;51.834;4.706;2024-03-08T11:21:59;34.90;;;20.58;;
25213;SDS011;13160;51.834;4.706;2024-03-08T11:24:36;31.88;;;21.80;;
25213;SDS011;13160;51.834;4.706;2024-03-08T11:27:09;33.05;;;20.95;;
25213;SDS011;13160;51.834;4.706;2024-03-08T11:29:40;29.73;;;19.83;;
25213;SDS011;13160;51.834;4.706;2024-03-08T11:32:11;30.25;;;18.75;;
25213;SDS011;13160;51.834;4.706;2024-03-08T11:34:45;30.13;;;20.83;;
25213;SDS011;13160;51.834;4.706;2024-03-08T11:37:21;28.75;;;18.98;;
25213;SDS011;13160;51.834;4.706;2024-03-08T11:40:33;29.60;;;19.42;;
25213;SDS011;13160;51.834;4.706;2024-03-08T11:43:26;28.45;;;19.60;;
25213;SDS011;13160;51.834;4.706;2024-03-08T11:46:08;31.73;;;19.83;;
25213;SDS011;13160;51.834;4.706;2024-03-08T11:49:15;31.25;;;20.27;;
25213;SDS011;13160;51.834;4.706;2024-03-08T11:51:59;30.55;;;20.08;;
25213;SDS011;13160;51.834;4.706;2024-03-08T11:55:15;32.88;;;20.00;;
25213;SDS011;13160;51.834;4.706;2024-03-08T11:58:00;29.17;;;19.17;;
25213;SDS011;13160;51.834;4.706;2024-03-08T12:46:08;28.35;;;17.70;;
25213;SDS011;13160;51.834;4.706;2024-03-08T12:49:32;26.27;;;17.52;;
25213;SDS011;13160;51.834;4.706;2024-03-08T12:52:08;29.58;;;17.77;;
25213;SDS011;13160;51.834;4.706;2024-03-08T12:54:45;27.85;;;17.95;;
25213;SDS011;13160;51.834;4.706;2024-03-08T12:57:48;27.60;;;18.75;;
25213;SDS011;13160;51.834;4.706;2024-03-08T13:00:55;27.38;;;18.67;;
25213;SDS011;13160;51.834;4.706;2024-03-08T13:04:18;25.52;;;17.05;;
25213;SDS011;13160;51.834;4.706;2024-03-08T13:07:25;25.77;;;17.63;;
25213;SDS011;13160;51.834;4.706;2024-03-08T13:10:17;27.75;;;18.13;;
25213;SDS011;13160;51.834;4.706;2024-03-08T13:13:09;28.15;;;18.77;;
25213;SDS011;13160;51.834;4.706;2024-03-08T13:15:47;26.80;;;18.05;;
25213;SDS011;13160;51.834;4.706;2024-03-08T13:18:27;25.85;;;17.60;;
25213;SDS011;13160;51.834;4.706;2024-03-08T13:21:08;30.45;;;19.92;;
25213;SDS011;13160;51.834;4.706;2024-03-08T13:24:14;27.27;;;18.42;;
25213;SDS011;13160;51.834;4.706;2024-03-08T13:27:15;27.75;;;18.58;;
25213;SDS011;13160;51.834;4.706;2024-03-08T13:54:57;29.80;;;19.00;;
25213;SDS011;13160;51.834;4.706;2024-03-08T13:58:46;31.85;;;20.33;;
25213;SDS011;13160;51.834;4.706;2024-03-08T14:01:46;29.13;;;20.65;;
25213;SDS011;13160;51.834;4.706;2024-03-08T14:04:17;31.50;;;20.65;;
25213;SDS011;13160;51.834;4.706;2024-03-08T14:06:48;31.63;;;20.30;;
25213;SDS011;13160;51.834;4.706;2024-03-08T14:09:18;28.25;;;18.85;;
25213;SDS011;13160;51.834;4.706;2024-03-08T14:11:47;29.70;;;19.85;;
25213;SDS011;13160;51.834;4.706;2024-03-08T14:14:16;28.67;;;19.58;;
25213;SDS011;13160;51.834;4.706;2024-03-08T14:16:49;29.90;;;19.70;;
25213;SDS011;13160;51.834;4.706;2024-03-08T14:19:21;32.00;;;18.67;;
25213;SDS011;13160;51.834;4.706;2024-03-08T14:21:52;30.85;;;19.70;;
25213;SDS011;13160;51.834;4.706;2024-03-08T14:24:21;31.15;;;18.77;;
25213;SDS011;13160;51.834;4.706;2024-03-08T14:26:50;30.15;;;20.15;;
25213;SDS011;13160;51.834;4.706;2024-03-08T14:29:23;31.27;;;20.27;;
25213;SDS011;13160;51.834;4.706;2024-03-08T14:31:58;27.98;;;19.10;;
25213;SDS011;13160;51.834;4.706;2024-03-08T14:34:43;32.92;;;21.35;;
25213;SDS011;13160;51.834;4.706;2024-03-08T14:37:22;29.20;;;20.05;;
25213;SDS011;13160;51.834;4.706;2024-03-08T14:40:01;29.52;;;20.63;;
25213;SDS011;13160;51.834;4.706;2024-03-08T14:42:48;33.75;;;21.17;;
25213;SDS011;13160;51.834;4.706;2024-03-08T14:45:40;30.40;;;21.67;;
25213;SDS011;13160;51.834;4.706;2024-03-08T14:49:15;29.35;;;19.25;;
25213;SDS011;13160;51.834;4.706;2024-03-08T14:53:07;31.70;;;20.48;;
25213;SDS011;13160;51.834;4.706;2024-03-08T14:55:49;29.30;;;20.40;;
25213;SDS011;13160;51.834;4.706;2024-03-08T14:58:22;33.00;;;21.08;;
25213;SDS011;13160;51.834;4.706;2024-03-08T15:00:59;30.13;;;20.98;;
25213;SDS011;13160;51.834;4.706;2024-03-08T15:03:36;31.08;;;20.80;;
25213;SDS011;13160;51.834;4.706;2024-03-08T15:06:11;30.08;;;20.77;;
25213;SDS011;13160;51.834;4.706;2024-03-08T15:08:50;33.75;;;21.25;;
25213;SDS011;13160;51.834;4.706;2024-03-08T15:11:26;27.58;;;19.85;;
25213;SDS011;13160;51.834;4.706;2024-03-08T15:13:58;29.63;;;20.15;;
25213;SDS011;13160;51.834;4.706;2024-03-08T15:16:39;29.63;;;20.63;;
25213;SDS011;13160;51.834;4.706;2024-03-08T15:19:16;29.00;;;20.38;;
25213;SDS011;13160;51.834;4.706;2024-03-08T15:23:06;29.95;;;20.83;;
25213;SDS011;13160;51.834;4.706;2024-03-08T15:32:23;29.05;;;21.35;;
25213;SDS011;13160;51.834;4.706;2024-03-08T15:35:00;29.15;;;20.25;;
25213;SDS011;13160;51.834;4.706;2024-03-08T15:37:44;29.63;;;20.30;;
25213;SDS011;13160;51.834;4.706;2024-03-08T15:40:29;29.45;;;21.55;;
25213;SDS011;13160;51.834;4.706;2024-03-08T15:43:14;33.40;;;21.42;;
25213;SDS011;13160;51.834;4.706;2024-03-08T15:45:46;30.23;;;20.20;;
25213;SDS011;13160;51.834;4.706;2024-03-08T15:48:25;33.05;;;20.85;;
25213;SDS011;13160;51.834;4.706;2024-03-08T15:50:58;32.28;;;21.92;;
25213;SDS011;13160;51.834;4.706;2024-03-08T15:53:32;28.33;;;19.85;;
25213;SDS011;13160;51.834;4.706;2024-03-08T15:56:07;29.98;;;20.65;;
25213;SDS011;13160;51.834;4.706;2024-03-08T15:58:38;29.70;;;20.27;;
25213;SDS011;13160;51.834;4.706;2024-03-08T16:01:20;30.08;;;19.45;;
25213;SDS011;13160;51.834;4.706;2024-03-08T16:08:17;30.05;;;21.27;;
25213;SDS011;13160;51.834;4.706;2024-03-08T16:20:25;29.30;;;19.50;;
25213;SDS011;13160;51.834;4.706;2024-03-08T16:22:56;30.40;;;20.42;;
25213;SDS011;13160;51.834;4.706;2024-03-08T16:25:32;31.05;;;20.10;;
25213;SDS011;13160;51.834;4.706;2024-03-08T16:28:08;29.98;;;20.05;;
25213;SDS011;13160;51.834;4.706;2024-03-08T16:30:51;29.98;;;20.38;;
25213;SDS011;13160;51.834;4.706;2024-03-08T16:33:25;28.35;;;19.98;;
25213;SDS011;13160;51.834;4.706;2024-03-08T16:35:58;32.00;;;21.73;;
25213;SDS011;13160;51.834;4.706;2024-03-08T16:38:35;32.63;;;21.40;;
25213;SDS011;13160;51.834;4.706;2024-03-08T16:41:12;29.77;;;20.08;;
25213;SDS011;13160;51.834;4.706;2024-03-08T16:43:43;27.98;;;20.85;;
25213;SDS011;13160;51.834;4.706;2024-03-08T16:46:22;33.92;;;23.17;;
25213;SDS011;13160;51.834;4.706;2024-03-08T16:49:03;32.83;;;22.92;;
25213;SDS011;13160;51.834;4.706;2024-03-08T16:59:10;28.67;;;20.25;;
25213;SDS011;13160;51.834;4.706;2024-03-08T17:11:59;31.25;;;21.70;;
25213;SDS011;13160;51.834;4.706;2024-03-08T17:15:15;31.90;;;21.98;;
25213;SDS011;13160;51.834;4.706;2024-03-08T17:56:36;35.53;;;19.98;;
25213;SDS011;13160;51.834;4.706;2024-03-08T18:00:37;31.00;;;20.13;;
25213;SDS011;13160;51.834;4.706;2024-03-08T18:04:18;32.20;;;19.02;;
25213;SDS011;13160;51.834;4.706;2024-03-08T18:20:11;32.45;;;21.08;;
25213;SDS011;13160;51.834;4.706;2024-03-08T18:24:11;30.98;;;19.38;;
25213;SDS011;13160;51.834;4.706;2024-03-08T18:27:45;31.65;;;20.40;;
25213;SDS011;13160;51.834;4.706;2024-03-08T18:31:41;36.03;;;20.08;;
25213;SDS011;13160;51.834;4.706;2024-03-08T18:43:19;32.38;;;20.23;;
25213;SDS011;13160;51.834;4.706;2024-03-08T18:50:24;35.45;;;22.30;;
25213;SDS011;13160;51.834;4.706;2024-03-08T19:05:46;35.97;;;23.02;;
25213;SDS011;13160;51.834;4.706;2024-03-08T19:09:17;37.65;;;23.58;;
25213;SDS011;13160;51.834;4.706;2024-03-08T19:12:46;35.90;;;22.58;;
25213;SDS011;13160;51.834;4.706;2024-03-08T19:20:01;35.25;;;21.90;;
25213;SDS011;13160;51.834;4.706;2024-03-08T19:23:39;37.50;;;22.58;;
25213;SDS011;13160;51.834;4.706;2024-03-08T19:30:49;37.78;;;22.90;;
25213;SDS011;13160;51.834;4.706;2024-03-08T19:34:24;36.58;;;23.85;;
25213;SDS011;13160;51.834;4.706;2024-03-08T19:37:34;39.97;;;24.13;;
25213;SDS011;13160;51.834;4.706;2024-03-08T19:41:03;41.17;;;22.40;;
25213;SDS011;13160;51.834;4.706;2024-03-08T19:45:02;37.45;;;21.58;;
25213;SDS011;13160;51.834;4.706;2024-03-08T19:48:46;40.47;;;23.00;;
25213;SDS011;13160;51.834;4.706;2024-03-08T19:56:04;44.00;;;23.88;;
25213;SDS011;13160;51.834;4.706;2024-03-08T19:59:27;43.17;;;22.33;;
25213;SDS011;13160;51.834;4.706;2024-03-08T20:03:06;36.10;;;22.50;;
25213;SDS011;13160;51.834;4.706;2024-03-08T20:06:14;40.08;;;23.67;;
25213;SDS011;13160;51.834;4.706;2024-03-08T20:10:09;38.42;;;22.92;;
25213;SDS011;13160;51.834;4.706;2024-03-08T20:17:19;38.05;;;22.52;;
25213;SDS011;13160;51.834;4.706;2024-03-08T20:24:45;39.80;;;24.85;;
25213;SDS011;13160;51.834;4.706;2024-03-08T20:32:31;45.95;;;24.80;;
25213;SDS011;13160;51.834;4.706;2024-03-08T20:35:48;40.17;;;22.48;;
25213;SDS011;13160;51.834;4.706;2024-03-08T20:38:49;41.13;;;24.05;;
25213;SDS011;13160;51.834;4.706;2024-03-08T20:42:22;40.30;;;24.23;;
25213;SDS011;13160;51.834;4.706;2024-03-08T20:46:11;42.78;;;24.67;;
25213;SDS011;13160;51.834;4.706;2024-03-08T20:49:40;40.67;;;24.45;;
25213;SDS011;13160;51.834;4.706;2024-03-08T20:55:56;43.65;;;24.77;;
25213;SDS011;13160;51.834;4.706;2024-03-08T20:59:20;38.72;;;23.10;;
25213;SDS011;13160;51.834;4.706;2024-03-08T21:02:40;44.47;;;24.45;;
25213;SDS011;13160;51.834;4.706;2024-03-08T21:06:26;38.60;;;23.77;;
25213;SDS011;13160;51.834;4.706;2024-03-08T21:10:09;40.85;;;22.90;;
25213;SDS011;13160;51.834;4.706;2024-03-08T21:13:24;37.60;;;22.13;;
25213;SDS011;13160;51.834;4.706;2024-03-08T21:16:48;38.75;;;22.98;;
25213;SDS011;13160;51.834;4.706;2024-03-08T21:23:47;39.28;;;22.77;;
25213;SDS011;13160;51.834;4.706;2024-03-08T21:27:16;36.70;;;22.67;;
25213;SDS011;13160;51.834;4.706;2024-03-08T21:30:50;40.70;;;23.52;;
25213;SDS011;13160;51.834;4.706;2024-03-08T21:41:52;40.78;;;24.15;;
25213;SDS011;13160;51.834;4.706;2024-03-08T21:45:41;41.20;;;23.60;;
25213;SDS011;13160;51.834;4.706;2024-03-08T21:48:59;47.08;;;25.55;;
25213;SDS011;13160;51.834;4.706;2024-03-08T21:52:29;43.47;;;23.75;;
25213;SDS011;13160;51.834;4.706;2024-03-08T22:00:17;46.33;;;24.77;;
25213;SDS011;13160;51.834;4.706;2024-03-08T22:03:27;40.78;;;24.52;;
25213;SDS011;13160;51.834;4.706;2024-03-08T22:07:00;46.88;;;24.10;;
25213;SDS011;13160;51.834;4.706;2024-03-08T22:10:44;46.22;;;23.70;;
25213;SDS011;13160;51.834;4.706;2024-03-08T22:14:18;48.40;;;25.35;;
25213;SDS011;13160;51.834;4.706;2024-03-08T22:18:20;42.72;;;24.00;;
25213;SDS011;13160;51.834;4.706;2024-03-08T22:22:05;40.08;;;22.55;;
25213;SDS011;13160;51.834;4.706;2024-03-08T22:25:16;42.25;;;23.02;;
25213;SDS011;13160;51.834;4.706;2024-03-08T22:28:22;44.13;;;23.67;;
25213;SDS011;13160;51.834;4.706;2024-03-08T22:31:57;42.72;;;22.27;;
25213;SDS011;13160;51.834;4.706;2024-03-08T22:35:28;44.25;;;23.40;;
25213;SDS011;13160;51.834;4.706;2024-03-08T22:39:05;42.15;;;22.20;;
25213;SDS011;13160;51.834;4.706;2024-03-08T22:42:29;41.90;;;23.30;;
25213;SDS011;13160;51.834;4.706;2024-03-08T22:46:21;43.17;;;23.42;;
25213;SDS011;13160;51.834;4.706;2024-03-08T22:49:48;40.53;;;21.33;;
25213;SDS011;13160;51.834;4.706;2024-03-08T22:53:25;38.85;;;21.65;;
25213;SDS011;13160;51.834;4.706;2024-03-08T22:56:08;40.72;;;21.15;;
25213;SDS011;13160;51.834;4.706;2024-03-08T22:59:17;40.30;;;21.52;;
25213;SDS011;13160;51.834;4.706;2024-03-08T23:01:50;40.78;;;21.42;;
25213;SDS011;13160;51.834;4.706;2024-03-08T23:04:33;40.90;;;21.75;;
25213;SDS011;13160;51.834;4.706;2024-03-08T23:07:03;39.47;;;21.00;;
25213;SDS011;13160;51.834;4.706;2024-03-08T23:09:42;40.63;;;22.25;;
25213;SDS011;13160;51.834;4.706;2024-03-08T23:12:13;39.47;;;21.23;;
25213;SDS011;13160;51.834;4.706;2024-03-08T23:14:45;37.30;;;21.63;;
25213;SDS011;13160;51.834;4.706;2024-03-08T23:17:16;38.58;;;21.25;;
25213;SDS011;13160;51.834;4.706;2024-03-08T23:19:49;40.72;;;22.98;;
25213;SDS011;13160;51.834;4.706;2024-03-08T23:22:22;40.08;;;22.15;;
25213;SDS011;13160;51.834;4.706;2024-03-08T23:24:56;43.10;;;24.33;;
25213;SDS011;13160;51.834;4.706;2024-03-08T23:27:24;40.03;;;21.83;;
25213;SDS011;13160;51.834;4.706;2024-03-08T23:29:56;41.38;;;22.35;;
25213;SDS011;13160;51.834;4.706;2024-03-08T23:32:25;41.03;;;21.90;;
25213;SDS011;13160;51.834;4.706;2024-03-08T23:34:59;42.28;;;22.50;;
25213;SDS011;13160;51.834;4.706;2024-03-08T23:37:33;43.70;;;23.20;;
25213;SDS011;13160;51.834;4.706;2024-03-08T23:40:05;44.67;;;23.08;;
25213;SDS011;13160;51.834;4.706;2024-03-08T23:42:39;37.80;;;21.33;;
25213;SDS011;13160;51.834;4.706;2024-03-08T23:45:11;41.60;;;23.17;;
25213;SDS011;13160;51.834;4.706;2024-03-08T23:47:44;40.33;;;23.13;;
25213;SDS011;13160;51.834;4.706;2024-03-08T23:50:18;42.72;;;23.27;;
25213;SDS011;13160;51.834;4.706;2024-03-08T23:52:53;43.17;;;24.55;;
25213;SDS011;13160;51.834;4.706;2024-03-08T23:55:27;41.38;;;23.92;;
25213;SDS011;13160;51.834;4.706;2024-03-08T23:58:00;42.10;;;23.60;;
